• Join FlightAware (Why Join?)
  • Login
  • US Flag 
07:29PM EST


 

Airport Tracker/Info


-or-


 

Live Flight TrackerFlight Track Log ✈ N498QS ✈ 21-Nov-2012 ✈ KHPN - KPSP

Flight Track Log - Related Links

Times and Time Zones

All times are in EST time to prevent confusion due to time zone crossing. See the N498QS flight status page for this flight to view local times or setup timezone preferences in your user account.

Time Position Orientation Groundspeed Altitude Reporting Facility
EST Latitude Longitude Course Direction KTS MPH feet Rate Location/Type
02:18PM 41.0833 -73.7167 272° West 185 213 1,600  Level New York TRACON
02:19PM 41.1000 -73.8000 285° West 211 243 2,900 1,260 Climbing New York TRACON
02:20PM 41.0833 -73.8667 252° West 232 267 4,200 1,980 Climbing New York TRACON
02:21PM 41.0500 -73.9667 246° West 278 320 6,900 1,860 Climbing New York TRACON
02:22PM 41.0000 -74.0500 232° Southwest 284 327 8,000 1,860 Climbing New York TRACON
02:23PM 40.9500 -74.1333 232° Southwest 297 342 10,700 2,580 Climbing New York TRACON
02:24PM 40.6849 -86.5345 272° West  Level Estimated
02:24PM 40.9167 -74.2500 249° West 358 412 13,200  Level New York TRACON
02:25PM 40.8975 -74.4031 261° West 389 448 16,300 1,680 Climbing New York Center
02:26PM 40.8781 -74.5583 261° West 396 456 17,000 300 Climbing New York Center
02:27PM 40.8614 -74.6864 260° West 396 456 17,000  Level New York Center
02:28PM 40.8414 -74.8417 260° West 396 456 17,000  Level New York Center
02:29PM 40.8244 -74.9722 260° West 396 456 17,100 1,380 Climbing New York Center
02:30PM 40.8047 -75.1136 260° West 396 456 19,900 2,520 Climbing New York Center
02:31PM 40.7797 -75.2792 259° West 408 470 22,200 2,280 Climbing New York Center
02:32PM 40.7469 -75.4275 254° West 421 484 24,400 2,100 Climbing New York Center
02:33PM 40.6997 -75.5611 245° Southwest 435 501 26,400 1,860 Climbing New York Center
02:34PM 40.6436 -75.7133 244° Southwest 449 517 28,200 1,740 Climbing New York Center
02:35PM 40.6117 -75.8750 255° West 454 522 29,900 1,980 Climbing New York Center
02:36PM 40.6056 -76.0606 268° West 454 522 32,200 2,100 Climbing New York Center
02:37PM 40.6086 -76.2247 271° West 454 522 34,200 1,680 Climbing New York Center
02:38PM 40.6092 -76.3889 270° West 459 528 35,700 1,560 Climbing New York Center
02:39PM 40.6119 -76.5503 271° West 459 528 37,400 1,560 Climbing New York Center
02:40PM 40.6122 -76.7092 270° West 448 516 38,800 1,260 Climbing New York Center
02:41PM 40.6128 -76.8650 270° West 438 504 40,000 1,020 Climbing New York Center
02:42PM 40.6153 -77.0183 271° West 433 498 40,900 720 Climbing New York Center
02:43PM 40.6131 -77.1739 269° West 427 491 41,500 600 Climbing New York Center
02:44PM 40.6150 -77.2917 271° West 427 491 42,100 540 Climbing New York Center
02:45PM 40.6139 -77.4586 270° West 421 484 42,700 300 Climbing New York Center
02:47PM 40.6136 -77.7467 270° West 445 512 43,000 60 Climbing Cleveland Center
02:48PM 40.6133 -77.9053 270° West 440 506 43,000  Level Cleveland Center
02:49PM 40.6128 -78.0667 270° West 440 506 43,000  Level Cleveland Center
02:50PM 40.6100 -78.2283 269° West 440 506 43,000  Level Cleveland Center
02:51PM 40.6089 -78.3897 270° West 440 506 43,000  Level Cleveland Center
02:52PM 40.6078 -78.5539 270° West 440 506 43,000  Level Cleveland Center
02:53PM 40.6044 -78.7153 268° West 440 506 43,000  Level Cleveland Center
02:54PM 40.6028 -78.8794 269° West 440 506 43,000  Level Cleveland Center
02:55PM 40.6031 -79.0572 270° West 440 506 43,000  Level Cleveland Center
02:56PM 40.6008 -79.2131 269° West 440 506 43,000  Level Cleveland Center
02:57PM 40.5967 -79.3772 268° West 440 506 43,000  Level Cleveland Center
02:58PM 40.5961 -79.5358 270° West 440 506 43,000  Level Cleveland Center
02:59PM 40.5933 -79.6972 269° West 440 506 43,000  Level Cleveland Center
03:00PM 40.5881 -79.8558 268° West 440 506 43,000  Level Cleveland Center
03:01PM 40.5867 -79.9789 269° West 440 506 43,000  Level Cleveland Center
03:02PM 40.5814 -80.1567 268° West 445 512 43,000  Level Cleveland Center
03:03PM 40.5756 -80.3097 267° West 435 501 43,000  Level Cleveland Center
03:04PM 40.5736 -80.4792 269° West 435 501 43,000  Level Cleveland Center
03:05PM 40.5694 -80.6406 268° West 430 495 43,000  Level Cleveland Center
03:06PM 40.5631 -80.8017 267° West 435 501 43,000  Level Cleveland Center
03:09PM 40.5492 -81.2325 268° West 457 526 43,000  Level Indianapolis Center
03:10PM 40.5419 -81.3994 267° West 462 532 43,000  Level Indianapolis Center
03:11PM 40.5364 -81.5606 267° West 462 532 43,000  Level Indianapolis Center
03:12PM 40.5289 -81.7439 267° West 462 532 43,000  Level Indianapolis Center
03:13PM 40.5231 -81.9078 267° West 462 532 43,000  Level Indianapolis Center
03:14PM 40.5169 -82.0717 267° West 462 532 43,000  Level Indianapolis Center
03:15PM 40.5083 -82.2386 266° West 457 526 43,000  Level Indianapolis Center
03:16PM 40.5039 -82.4022 268° West 462 532 43,000  Level Indianapolis Center
03:17PM 40.4950 -82.5689 266° West 462 532 43,000 -300 Level Indianapolis Center
03:18PM 40.4878 -82.7303 267° West 456 525 42,500 -1,140 Descending Indianapolis Center
03:19PM 40.4806 -82.8994 267° West 461 531 40,800 -1,260 Descending Indianapolis Center
03:20PM 40.4731 -83.0606 267° West 461 531 40,000 -420 Descending Indianapolis Center
03:21PM 40.4631 -83.2214 265° West 456 525 40,000  Level Indianapolis Center
03:22PM 40.4553 -83.3853 266° West 461 531 40,000  Level Indianapolis Center
03:23PM 40.4469 -83.5517 266° West 461 531 40,000  Level Indianapolis Center
03:24PM 40.4386 -83.7125 266° West 454 522 40,000  Level Indianapolis Center
03:25PM 40.4278 -83.8761 265° West 454 522 40,000  Level Indianapolis Center
03:26PM 40.4189 -84.0422 266° West 454 522 40,000  Level Indianapolis Center
03:27PM 40.4100 -84.1839 265° West 454 522 40,000  Level Indianapolis Center
03:28PM 40.4006 -84.3475 266° West 454 522 40,000  Level Indianapolis Center
03:29PM 40.3889 -84.5081 265° West 454 522 40,000  Level Indianapolis Center
03:30PM 40.3792 -84.6742 266° West 454 522 40,000  Level Indianapolis Center
03:31PM 40.3672 -84.8347 264° West 454 522 40,000  Level Indianapolis Center
03:32PM 40.3589 -85.0144 267° West 454 522 40,000  Level Indianapolis Center
03:33PM 40.3672 -85.1725 274° West 445 512 40,000  Level Indianapolis Center
03:33PM 40.3758 -85.2069 288° West 443 510 40,000  Level Chicago Center
03:34PM 40.4369 -85.3369 302° West 455 524 40,000  Level Chicago Center
03:35PM 40.4836 -85.4786 293° West 427 491 40,000  Level Chicago Center
03:36PM 40.4908 -85.6339 274° West 422 486 40,000  Level Chicago Center
03:37PM 40.4750 -85.7958 263° West 461 531 40,000  Level Chicago Center
03:38PM 40.4592 -85.9606 263° West 461 531 40,000  Level Chicago Center
03:39PM 40.4472 -86.1194 264° West 455 524 40,000  Level Chicago Center
03:40PM 40.4308 -86.2811 262° West 450 518 40,000  Level Chicago Center
03:41PM 40.4122 -86.4431 261° West 450 518 40,000  Level Chicago Center
03:42PM 40.3975 -86.6044 263° West 450 518 40,000  Level Chicago Center
03:43PM 40.3825 -86.7686 263° West 450 518 40,000  Level Chicago Center
03:44PM 40.3669 -86.9136 262° West 450 518 40,000  Level Chicago Center
03:45PM 40.3494 -87.0697 262° West 442 509 40,000  Level Chicago Center
03:46PM 40.3336 -87.2308 263° West 449 517 40,000  Level Chicago Center
03:47PM 40.3200 -87.3894 264° West 444 511 40,000  Level Chicago Center
03:48PM 40.2975 -87.5561 260° West 444 511 40,000  Level Chicago Center
03:49PM 40.2792 -87.7089 261° West 439 505 40,000  Level Chicago Center
03:50PM 40.2625 -87.8672 262° West 434 499 40,000  Level Chicago Center
03:51PM 40.2436 -88.0225 261° West 429 494 40,000  Level Chicago Center
03:52PM 40.2286 -88.1725 263° West 426 490 40,000  Level Chicago Center
03:53PM 40.2114 -88.3250 262° West 426 490 40,000  Level Chicago Center
03:54PM 40.1936 -88.4667 261° West 420 483 40,000  Level Chicago Center
03:55PM 40.1739 -88.6192 260° West 420 483 40,000  Level Chicago Center
03:56PM 40.1581 -88.7686 262° West 420 483 40,000  Level Chicago Center
03:57PM 40.1400 -88.9156 261° West 425 489 40,000  Level Chicago Center
03:58PM 40.1217 -89.0650 261° West 425 489 40,000  Level Chicago Center
03:59PM 40.1033 -89.2169 261° West 425 489 40,000  Level Chicago Center
04:00PM 40.0942 -89.2792 259° West 422 486 40,000  Level Kansas City Center
04:01PM 40.0739 -89.4325 260° West 408 470 40,000  Level Kansas City Center
04:02PM 40.0569 -89.5803 262° West 414 476 40,000  Level Kansas City Center
04:03PM 40.0383 -89.7361 261° West 420 483 40,000  Level Kansas City Center
04:04PM 40.0172 -89.8864 260° West 425 489 40,000  Level Kansas City Center
04:05PM 39.9978 -90.0367 260° West 425 489 40,000  Level Kansas City Center
04:06PM 39.9783 -90.1897 261° West 430 495 40,000  Level Kansas City Center
04:07PM 39.9617 -90.3097 260° West 430 495 40,000  Level Kansas City Center
04:08PM 39.9403 -90.4733 260° West 430 495 40,000  Level Kansas City Center
04:09PM 39.9203 -90.6233 260° West 430 495 40,000  Level Kansas City Center
04:10PM 39.9000 -90.7733 260° West 430 495 40,000  Level Kansas City Center
04:11PM 39.8794 -90.9231 260° West 430 495 40,000  Level Kansas City Center
04:12PM 39.8628 -91.0644 261° West 423 487 40,000  Level Kansas City Center
04:13PM 39.8442 -91.2114 261° West 417 480 40,000  Level Kansas City Center
04:14PM 39.8231 -91.3583 259° West 417 480 40,000  Level Kansas City Center
04:15PM 39.8019 -91.5078 260° West 417 480 40,000  Level Kansas City Center
04:16PM 39.7764 -91.6575 258° West 417 480 40,000  Level Kansas City Center
04:17PM 39.7547 -91.8094 260° West 417 480 40,000  Level Kansas City Center
04:18PM 39.7331 -91.9586 259° West 422 486 40,000  Level Kansas City Center
04:19PM 39.7092 -92.1053 258° West 422 486 40,000  Level Kansas City Center
04:20PM 39.6892 -92.2569 260° West 422 486 40,000  Level Kansas City Center
04:21PM 39.6647 -92.4058 258° West 422 486 40,000  Level Kansas City Center
04:22PM 39.6422 -92.5522 259° West 422 486 40,000  Level Kansas City Center
04:23PM 39.6194 -92.6981 259° West 422 486 40,000  Level Kansas City Center
04:24PM 39.5967 -92.8442 259° West 422 486 40,000  Level Kansas City Center
04:25PM 39.5756 -92.9928 260° West 415 478 40,000  Level Kansas City Center
04:26PM 39.5503 -93.1386 257° West 415 478 40,000  Level Kansas City Center
04:27PM 39.5267 -93.2817 258° West 415 478 40,000  Level Kansas City Center
04:28PM 39.5031 -93.4275 258° West 409 471 40,000  Level Kansas City Center
04:29PM 39.4794 -93.5756 258° West 415 478 40,000  Level Kansas City Center
04:30PM 39.4556 -93.7158 258° West 415 478 40,000  Level Kansas City Center
04:31PM 39.4314 -93.8744 259° West 413 475 40,000  Level Kansas City Center
04:32PM 39.4111 -94.0225 260° West 413 475 40,000  Level Kansas City Center
04:33PM 39.3867 -94.1514 256° West 413 475 40,000  Level Kansas City Center
04:34PM 39.3600 -94.2967 257° West 413 475 40,000  Level Kansas City Center
04:35PM 39.3350 -94.4550 259° West 413 475 40,000  Level Kansas City Center
04:36PM 39.3081 -94.6000 257° West 413 475 40,000  Level Kansas City Center
04:37PM 39.2869 -94.7286 258° West 413 475 40,000  Level Kansas City Center
04:38PM 39.2678 -94.8758 260° West 413 475 40,000  Level Kansas City Center
04:39PM 39.2506 -95.0367 262° West 413 475 40,000  Level Kansas City Center
04:40PM 39.2353 -95.1947 263° West 429 494 40,000  Level Kansas City Center
04:41PM 39.2197 -95.3311 262° West 437 503 40,000  Level Kansas City Center
04:42PM 39.1975 -95.5050 261° West 437 503 40,000  Level Kansas City Center
04:43PM 39.1817 -95.6386 261° West 437 503 40,000  Level Kansas City Center
04:44PM 39.1614 -95.7883 260° West 429 494 40,000  Level Kansas City Center
04:45PM 39.1408 -95.9511 261° West 428 493 40,000  Level Kansas City Center
04:46PM 39.1264 -96.1008 263° West 429 494 40,000  Level Kansas City Center
04:47PM 39.1078 -96.2447 261° West 417 480 40,000  Level Kansas City Center
04:48PM 39.0889 -96.3942 261° West 424 488 40,000  Level Kansas City Center
04:49PM 39.0592 -96.5483 256° West 437 503 40,000  Level Kansas City Center
04:50PM 39.0481 -96.7031 265° West 437 503 40,000  Level Kansas City Center
04:51PM 39.0331 -96.8364 262° West 437 503 40,000  Level Kansas City Center
04:52PM 39.0111 -97.0011 260° West 431 496 40,000  Level Kansas City Center
04:53PM 38.9892 -97.1500 259° West 430 495 40,000  Level Kansas City Center
04:54PM 38.9736 -97.2831 261° West 430 495 40,000  Level Kansas City Center
04:55PM 38.9533 -97.4292 260° West 425 489 40,000  Level Kansas City Center
04:56PM 38.9306 -97.5908 260° West 425 489 40,000  Level Kansas City Center
04:57PM 38.9122 -97.7394 261° West 425 489 40,000  Level Kansas City Center
04:58PM 38.8958 -97.8775 261° West 425 489 40,000  Level Kansas City Center
04:59PM 38.8769 -98.0286 261° West 425 489 40,000  Level Kansas City Center
05:00PM 38.8578 -98.1772 261° West 425 489 40,000  Level Kansas City Center
05:01PM 38.8406 -98.3256 262° West 425 489 40,000  Level Kansas City Center
05:02PM 38.8211 -98.4792 261° West 425 489 40,000  Level Kansas City Center
05:03PM 38.8014 -98.6272 260° West 425 489 40,000  Level Kansas City Center
05:04PM 38.7817 -98.7753 260° West 425 489 40,000  Level Kansas City Center
05:05PM 38.7639 -98.9208 261° West 425 489 40,000  Level Kansas City Center
05:06PM 38.7436 -99.0686 260° West 425 489 40,000  Level Kansas City Center
05:07PM 38.7214 -99.2136 259° West 425 489 40,000  Level Kansas City Center
05:08PM 38.7008 -99.3611 260° West 425 489 40,000  Level Kansas City Center
05:08PM 38.6836 -99.4881 260° West 414 476 40,000  Level Denver Center
05:09PM 38.6617 -99.6472 260° West 409 471 40,000  Level Denver Center
05:10PM 38.6422 -99.7844 260° West 411 473 40,000  Level Denver Center
05:11PM 38.6228 -99.9214 260° West 409 471 40,000  Level Denver Center
05:13PM 38.6003 -100.0814 260° West 410 472 40,000  Level Denver Center
05:14PM 38.5808 -100.2178 260° West 410 472 40,000  Level Denver Center
05:15PM 38.5575 -100.3772 259° West 410 472 40,000  Level Denver Center
05:16PM 38.5375 -100.5139 259° West 410 472 40,000  Level Denver Center
05:17PM 38.5142 -100.6747 260° West 413 475 40,000  Level Denver Center
05:18PM 38.4939 -100.8133 259° West 415 478 40,000  Level Denver Center
05:19PM 38.4692 -100.9733 259° West 414 476 40,000  Level Denver Center
05:20PM 38.4486 -101.1097 259° West 413 475 40,000  Level Denver Center
05:21PM 38.4242 -101.2697 259° West 414 476 40,000  Level Denver Center
05:22PM 38.4033 -101.4075 259° West 415 478 40,000  Level Denver Center
05:23PM 38.3772 -101.5678 258° West 415 478 40,000  Level Denver Center
05:24PM 38.3558 -101.7050 259° West 415 478 40,000  Level Denver Center
05:25PM 38.3303 -101.8656 259° West 415 478 40,000  Level Denver Center
05:26PM 38.3086 -102.0042 259° West 417 480 40,000  Level Denver Center
05:27PM 38.2828 -102.1653 259° West 418 481 40,000  Level Denver Center
05:28PM 38.2600 -102.3033 258° West 418 481 40,000  Level Denver Center
05:29PM 38.2331 -102.4636 258° West 416 479 40,000  Level Denver Center
05:30PM 38.2117 -102.6014 259° West 416 479 40,000  Level Denver Center
05:31PM 38.1803 -102.7606 256° West 417 480 40,000  Level Denver Center
05:32PM 38.1444 -102.8936 251° West 417 480 40,000  Level Denver Center
05:33PM 38.1044 -103.0483 252° West 414 476 40,000  Level Denver Center
05:34PM 38.0719 -103.1753 252° West 415 478 40,000  Level Denver Center
05:35PM 38.0311 -103.3306 252° West 415 478 40,000  Level Denver Center
05:36PM 37.9967 -103.4639 252° West 417 480 40,000  Level Denver Center
05:37PM 37.9553 -103.6206 252° West 419 482 40,000  Level Denver Center
05:38PM 37.9200 -103.7539 251° West 420 483 40,000  Level Denver Center
05:39PM 37.8792 -103.9083 252° West 418 481 40,000  Level Denver Center
05:40PM 37.8431 -104.0406 251° West 418 481 40,000  Level Denver Center
05:41PM 37.8011 -104.1950 251° West 419 482 40,000  Level Denver Center
05:43PM 37.7653 -104.3281 251° West 421 484 40,000  Level Denver Center
05:44PM 37.7225 -104.4844 251° West 424 488 40,000  Level Denver Center
05:45PM 37.6856 -104.6158 250° West 419 482 40,000  Level Denver Center
05:46PM 37.6439 -104.7708 251° West 419 482 40,000  Level Denver Center
05:47PM 37.6072 -104.9019 251° West 417 480 40,000  Level Denver Center
05:48PM 37.5644 -105.0572 251° West 419 482 40,000  Level Denver Center
05:49PM 37.5269 -105.1911 251° West 423 487 40,000  Level Denver Center
05:50PM 37.4825 -105.3458 250° West 422 486 40,000  Level Denver Center
05:51PM 37.4456 -105.4778 251° West 420 483 40,000  Level Denver Center
05:52PM 37.4017 -105.6314 250° West 419 482 40,000  Level Denver Center
05:53PM 37.3633 -105.7647 250° West 422 486 40,000  Level Denver Center
05:54PM 37.3208 -105.9219 251° West 424 488 40,000  Level Denver Center
05:55PM 37.2869 -106.0583 253° West 427 491 40,000  Level Denver Center
05:56PM 37.2481 -106.2172 253° West 427 491 40,000  Level Denver Center
05:57PM 37.2122 -106.3544 252° West 431 496 40,000  Level Denver Center
05:58PM 37.1711 -106.5150 252° West 432 497 40,000  Level Denver Center
05:59PM 37.1356 -106.6514 252° West 432 497 40,000  Level Denver Center
06:00PM 37.1006 -106.7886 252° West 432 497 40,000  Level Denver Center
06:01PM 37.0589 -106.9458 252° West 428 493 40,000  Level Denver Center
06:02PM 37.0225 -107.0831 252° West 431 496 40,000  Level Denver Center
06:03PM 36.9808 -107.2428 252° West 432 497 40,000  Level Denver Center
06:04PM 36.9442 -107.3789 251° West 432 497 40,000  Level Denver Center
06:05PM 36.9008 -107.5389 251° West 434 499 40,000  Level Denver Center
06:06PM 36.8647 -107.6742 252° West 432 497 40,000  Level Denver Center
06:07PM 36.8214 -107.8322 251° West 432 497 40,000  Level Denver Center
06:08PM 36.7842 -107.9689 251° West 433 498 40,000  Level Denver Center
06:09PM 36.7383 -108.1264 250° West 433 498 40,000  Level Denver Center
06:10PM 36.6833 -108.2514 241° Southwest 430 495 40,000  Level Denver Center
06:11PM 36.6214 -108.3978 242° Southwest 429 494 40,000  Level Denver Center
06:12PM 36.5669 -108.5239 242° Southwest 431 496 40,000  Level Denver Center
06:14PM 36.5044 -108.6700 242° Southwest 431 496 40,000  Level Denver Center
06:15PM 36.4503 -108.7944 242° Southwest 431 496 40,000  Level Denver Center
06:16PM 36.3889 -108.9397 242° Southwest 429 494 40,000  Level Denver Center
06:17PM 36.3344 -109.0628 241° Southwest 429 494 40,000  Level Denver Center
06:18PM 36.2708 -109.2067 241° Southwest 429 494 40,000  Level Denver Center
06:19PM 36.2167 -109.3306 242° Southwest 430 495 40,000  Level Denver Center
06:20PM 36.1525 -109.4742 241° Southwest 430 495 40,000  Level Denver Center
06:21PM 36.0981 -109.5975 241° Southwest 429 494 40,000  Level Denver Center
06:22PM 36.0339 -109.7411 241° Southwest 428 493 40,000  Level Denver Center
06:23PM 35.9783 -109.8642 241° Southwest 429 494 40,000  Level Denver Center
06:24PM 35.9139 -110.0072 241° Southwest 429 494 40,000  Level Denver Center
06:25PM 35.8542 -110.1417 241° Southwest 428 493 40,000  Level Denver Center
06:26PM 35.8103 -110.2306 239° Southwest 426 490 40,000  Level Albuquerque Center
06:27PM 35.7550 -110.3511 241° Southwest 424 488 40,000  Level Albuquerque Center
06:28PM 35.6917 -110.4933 241° Southwest 424 488 40,000  Level Albuquerque Center
06:29PM 35.6358 -110.6142 240° Southwest 424 488 40,000  Level Albuquerque Center
06:30PM 35.5711 -110.7539 240° Southwest 423 487 40,000  Level Albuquerque Center
06:31PM 35.5167 -110.8750 241° Southwest 422 486 40,000  Level Albuquerque Center
06:32PM 35.4511 -111.0144 240° Southwest 422 486 40,000  Level Albuquerque Center
06:33PM 35.3956 -111.1336 240° Southwest 422 486 40,000  Level Albuquerque Center
06:34PM 35.3311 -111.2733 241° Southwest 422 486 40,000  Level Albuquerque Center
06:35PM 35.2822 -111.3817 241° Southwest 427 491 40,000  Level Albuquerque Center
06:36PM 35.2131 -111.5322 241° Southwest 426 490 40,000  Level Albuquerque Center
06:37PM 35.1550 -111.6553 240° Southwest 422 486 40,000  Level Albuquerque Center
06:38PM 35.1164 -111.7806 249° West 416 479 40,000  Level Albuquerque Center
06:39PM 35.0761 -111.9142 250° West 421 484 40,000  Level Albuquerque Center
06:40PM 35.0303 -112.0753 251° West 420 483 40,000  Level Albuquerque Center
06:41PM 34.9906 -112.2103 250° West 423 487 40,000  Level Albuquerque Center
06:42PM 34.9506 -112.3442 250° West 422 486 40,000 -540 Level Albuquerque Center
06:43PM 34.9114 -112.4803 251° West 424 488 38,900 -1,140 Descending Albuquerque Center
06:44PM 34.8717 -112.6150 250° West 423 487 37,700 -1,140 Descending Albuquerque Center
06:45PM 34.8319 -112.7472 250° West 420 483 36,600 -1,200 Descending Albuquerque Center
06:46PM 34.7906 -112.8847 250° West 426 490 35,300 -1,320 Descending Albuquerque Center
06:47PM 34.7400 -113.0556 250° West 440 506 33,900 -1,260 Descending Albuquerque Center
06:48PM 34.6958 -113.1992 250° West 449 517 32,700 -1,200 Descending Albuquerque Center
06:49PM 34.6522 -113.3414 250° West 451 519 31,500 -1,200 Descending Albuquerque Center
06:50PM 34.6083 -113.4828 249° West 448 516 30,300 -780 Descending Albuquerque Center
06:51PM 34.5592 -113.6453 250° West 453 521 30,000 -180 Descending Albuquerque Center
06:52PM 34.5303 -113.7933 257° West 451 519 30,000  Level Albuquerque Center
06:54PM 34.5006 -113.9381 256° West 446 513 30,000  Level Albuquerque Center
06:55PM 34.4703 -114.0836 256° West 445 512 30,000 -60 Level Albuquerque Center
06:56PM 34.4408 -114.2292 256° West 445 512 29,900 -540 Descending Albuquerque Center
06:56PM 34.4289 -114.2942 257° West 443 510 29,300 -1,260 Descending Los Angeles Center
06:57PM 34.3989 -114.4361 256° West 440 506 28,200 -1,140 Descending Los Angeles Center
06:58PM 34.3697 -114.5781 256° West 437 503 27,000 -1,200 Descending Los Angeles Center
06:59PM 34.3192 -114.7078 245° Southwest 429 494 25,800 -1,260 Descending Los Angeles Center
07:00PM 34.2683 -114.8383 245° Southwest 427 491 24,400 -1,680 Descending Los Angeles Center
07:01PM 34.2192 -114.9672 245° Southwest 425 489 22,400 -2,040 Descending Los Angeles Center
07:02PM 34.1603 -115.1200 245° Southwest 419 482 20,300 -1,860 Descending Los Angeles Center
07:03PM 34.1208 -115.2486 250° West 412 474 18,600 -1,560 Descending Los Angeles Center
07:04PM 34.0819 -115.3689 249° West 392 451 17,100 -1,380 Descending Los Angeles Center
07:05PM 34.0464 -115.4864 250° West 378 435 15,800 -1,260 Descending Los Angeles Center
07:06PM 34.0117 -115.5989 250° West 367 422 14,600 -1,260 Descending Los Angeles Center
07:07PM 33.9692 -115.7303 249° West 357 411 13,200 -1,260 Descending Los Angeles Center
07:08PM 33.9347 -115.8403 249° West 355 409 12,000 -1,140 Descending Los Angeles Center
07:09PM 33.9306 -115.9494 267° West 340 391 10,900 -1,140 Descending Los Angeles Center
07:10PM 33.9336 -116.0483 272° West 312 359 9,700 -1,200 Descending Los Angeles Center
07:11PM 33.9161 -116.1350 256° West 295 339 8,500 -1,260 Descending Los Angeles Center
07:12PM 33.8797 -116.2125 241° Southwest 277 319 7,200 -780 Descending Los Angeles Center
07:14PM 33.8444 -116.2869 240° Southwest 236 272 6,900 -360 Descending Los Angeles Center
07:15PM 33.8061 -116.3375 228° Southwest 231 266 6,500 -1,800 Descending Los Angeles Center
07:17PM 33.7833 -116.4667 258° West 156 180 1,300 -1,920 Descending Southern California TRACON
07:18PM 33.8167 -116.5000 320° Northwest 147 169 700 -600 Descending Southern California TRACON
07:20PM 33.8297 -116.5067 256° West  Level Estimated
07:27PM 33.8297 -116.5067 256° West  Level Estimated